createdAt,value
2023-04-01T00:00:24.641Z,8.57
2023-04-01T00:05:47.468Z,8.54
2023-04-01T00:10:50.176Z,8.52
2023-04-01T00:15:53.543Z,8.54
2023-04-01T00:20:56.100Z,8.58
2023-04-01T00:26:01.783Z,8.57
2023-04-01T00:31:07.276Z,8.61
2023-04-01T00:36:15.722Z,8.65
2023-04-01T00:41:20.333Z,8.68
2023-04-01T00:46:22.893Z,8.76
2023-04-01T00:51:29.975Z,8.83
2023-04-01T00:56:37.738Z,8.86
2023-04-01T01:01:40.719Z,8.82
2023-04-01T01:07:05.479Z,8.81
2023-04-01T01:12:20.770Z,8.78
2023-04-01T01:17:51.908Z,8.78
2023-04-01T01:23:00.644Z,8.76
2023-04-01T01:28:24.981Z,8.71
2023-04-01T01:33:43.307Z,8.72
2023-04-01T01:38:48.418Z,8.75
2023-04-01T01:43:54.510Z,8.84
2023-04-01T01:48:58.811Z,8.89
2023-04-01T01:54:01.290Z,8.88
2023-04-01T01:59:09.587Z,8.84
2023-04-01T02:04:15.773Z,8.76
2023-04-01T02:09:19.721Z,8.71
2023-04-01T02:14:26.094Z,8.67
2023-04-01T02:19:34.749Z,8.66
2023-04-01T02:24:39.739Z,8.70
2023-04-01T02:29:42.346Z,8.74
2023-04-01T02:34:45.456Z,8.79
2023-04-01T02:39:48.000Z,8.82
2023-04-01T02:44:50.525Z,8.87
2023-04-01T02:49:58.826Z,8.87
2023-04-01T02:55:01.623Z,8.86
2023-04-01T03:00:04.656Z,8.85
2023-04-01T03:05:08.102Z,8.78
2023-04-01T03:10:11.236Z,8.66
2023-04-01T03:15:15.618Z,8.59
2023-04-01T03:20:18.555Z,8.55
2023-04-01T03:25:21.167Z,8.53
2023-04-01T03:30:24.237Z,8.51
2023-04-01T03:35:27.350Z,8.49
2023-04-01T03:40:29.866Z,8.48
2023-04-01T03:45:32.486Z,8.43
2023-04-01T03:50:35.738Z,8.42
2023-04-01T03:55:39.194Z,8.40
2023-04-01T04:00:41.724Z,8.41
2023-04-01T04:05:48.862Z,8.43
2023-04-01T04:10:57.738Z,8.42
2023-04-01T04:16:00.358Z,8.40
2023-04-01T04:21:04.133Z,8.37
2023-04-01T04:26:08.751Z,8.32
2023-04-01T04:31:11.488Z,8.30
2023-04-01T04:36:14.702Z,8.30
2023-04-01T04:41:20.340Z,8.28
2023-04-01T04:46:23.747Z,8.27
2023-04-01T04:51:26.842Z,8.27
2023-04-01T04:56:29.443Z,8.24
2023-04-01T05:01:32.044Z,8.23
2023-04-01T05:06:34.666Z,8.21
2023-04-01T05:11:37.463Z,8.25
2023-04-01T05:16:40.020Z,8.28
2023-04-01T05:21:42.577Z,8.27
2023-04-01T05:26:45.337Z,8.29
2023-04-01T05:31:47.830Z,8.30
2023-04-01T05:36:50.284Z,8.28
2023-04-01T05:41:52.885Z,8.26
2023-04-01T05:46:55.625Z,8.26
2023-04-01T05:51:58.392Z,8.25
2023-04-01T05:57:03.049Z,8.24
2023-04-01T06:02:05.666Z,8.25
2023-04-01T06:07:16.901Z,8.26
2023-04-01T06:12:57.519Z,8.30
2023-04-01T06:18:31.990Z,8.34
2023-04-01T06:24:07.546Z,8.42
2023-04-01T06:29:29.136Z,8.46
2023-04-01T06:34:50.793Z,8.46
2023-04-01T06:40:09.281Z,8.45
2023-04-01T06:45:20.009Z,8.45
2023-04-01T06:50:42.648Z,8.46
2023-04-01T06:55:53.630Z,8.46
2023-04-01T07:01:01.235Z,8.45
2023-04-01T07:06:06.514Z,8.51
2023-04-01T07:11:31.534Z,8.53
2023-04-01T07:16:40.650Z,8.48
2023-04-01T07:21:57.840Z,8.41
2023-04-01T07:27:00.480Z,8.35
2023-04-01T07:32:22.349Z,8.31
2023-04-01T07:37:46.271Z,8.29
2023-04-01T07:43:21.115Z,8.32
2023-04-01T07:48:55.758Z,8.35
2023-04-01T07:54:14.022Z,8.35
2023-04-01T07:59:40.970Z,8.37
2023-04-01T08:05:15.318Z,8.46
2023-04-01T08:10:24.619Z,8.64
2023-04-01T08:15:43.450Z,8.77
2023-04-01T08:20:51.925Z,8.85
2023-04-01T08:26:14.796Z,8.92
2023-04-01T08:31:36.981Z,9.04
2023-04-01T08:36:45.290Z,9.13
2023-04-01T08:41:59.648Z,9.24
2023-04-01T08:47:34.034Z,9.32
2023-04-01T08:53:09.679Z,9.27
2023-04-01T08:58:20.915Z,9.34
2023-04-01T09:03:42.330Z,9.58
2023-04-01T09:09:03.777Z,9.86
2023-04-01T09:14:22.320Z,10.20
2023-04-01T09:19:30.786Z,10.39
2023-04-01T09:24:47.715Z,10.58
2023-04-01T09:30:09.670Z,10.85
2023-04-01T09:35:25.456Z,10.88
2023-04-01T09:40:38.423Z,10.82
2023-04-01T09:45:48.534Z,10.72
2023-04-01T09:51:17.764Z,10.55
2023-04-01T09:56:28.308Z,10.37
2023-04-01T10:01:46.882Z,10.26
2023-04-01T10:07:32.838Z,10.22
2023-04-01T10:12:41.346Z,10.17
2023-04-01T10:18:06.316Z,10.11
2023-04-01T10:23:40.888Z,10.07
2023-04-01T10:29:19.690Z,10.12
2023-04-01T10:34:41.062Z,10.12
2023-04-01T10:40:15.496Z,10.11
2023-04-01T10:45:37.476Z,10.25
2023-04-01T10:50:56.168Z,10.29
2023-04-01T10:56:14.557Z,10.18
2023-04-01T11:01:20.804Z,10.20
2023-04-01T11:06:57.292Z,10.20
2023-04-01T11:12:16.077Z,10.07
2023-04-01T11:17:18.571Z,10.16
2023-04-01T11:22:27.915Z,10.29
2023-04-01T11:28:04.299Z,10.42
2023-04-01T11:33:21.872Z,10.55
2023-04-01T11:38:43.100Z,10.46
2023-04-01T11:44:18.366Z,10.36
2023-04-01T11:49:48.767Z,10.39
2023-04-01T11:55:18.963Z,10.28
2023-04-01T12:00:33.972Z,10.11
2023-04-01T12:05:59.622Z,9.90
2023-04-01T12:11:16.785Z,9.65
2023-04-01T12:16:25.694Z,9.51
2023-04-01T12:21:49.850Z,9.49
2023-04-01T12:27:08.350Z,9.51
2023-04-01T12:32:29.595Z,9.50
2023-04-01T12:38:04.163Z,9.51
2023-04-01T12:43:36.858Z,9.50
2023-04-01T12:48:55.638Z,9.46
2023-04-01T12:54:20.510Z,9.38
2023-04-01T12:59:55.607Z,9.35
2023-04-01T13:05:30.456Z,9.41
2023-04-01T13:10:43.080Z,9.39
2023-04-01T13:16:00.933Z,9.33
2023-04-01T13:21:10.608Z,9.41
2023-04-01T13:26:51.295Z,9.42
2023-04-01T13:32:15.531Z,9.37
2023-04-01T13:37:43.054Z,9.29
2023-04-01T13:42:54.865Z,9.18
2023-04-01T13:48:16.593Z,8.97
2023-04-01T13:53:35.511Z,8.70
2023-04-01T13:58:49.968Z,8.38
2023-04-01T14:03:57.266Z,8.16
2023-04-01T14:09:16.085Z,8.06
2023-04-01T14:14:37.989Z,8.00
2023-04-01T14:20:14.719Z,7.89
2023-04-01T14:25:37.053Z,7.86
2023-04-01T14:30:59.235Z,7.81
2023-04-01T14:36:39.696Z,7.70
2023-04-01T14:42:00.430Z,7.63
2023-04-01T14:47:44.196Z,7.61
2023-04-01T14:53:07.502Z,7.48
2023-04-01T14:58:13.766Z,7.40
2023-04-01T15:03:28.099Z,7.23
2023-04-01T15:08:39.210Z,7.07
2023-04-01T15:14:14.063Z,6.92
2023-04-01T15:19:43.821Z,6.86
2023-04-01T15:25:13.019Z,6.73
2023-04-01T15:30:38.338Z,6.59
2023-04-01T15:36:16.762Z,6.52
2023-04-01T15:41:37.026Z,6.56
2023-04-01T15:46:47.749Z,6.51
2023-04-01T15:52:04.917Z,6.49
2023-04-01T15:57:31.242Z,6.45
2023-04-01T16:03:10.336Z,6.44
2023-04-01T16:08:36.343Z,6.39
2023-04-01T16:14:11.000Z,6.37
2023-04-01T16:19:26.362Z,6.38
2023-04-01T16:24:47.898Z,6.36
2023-04-01T16:29:56.341Z,6.36
2023-04-01T16:35:15.671Z,6.34
2023-04-01T16:40:27.067Z,6.22
2023-04-01T16:45:29.602Z,6.07
2023-04-01T16:50:40.857Z,6.00
2023-04-01T16:56:06.179Z,5.97
2023-04-01T17:01:17.177Z,6.00
2023-04-01T17:06:44.269Z,5.99
2023-04-01T17:12:06.066Z,5.85
2023-04-01T17:17:41.762Z,5.81
2023-04-01T17:23:02.745Z,5.84
2023-04-01T17:28:11.630Z,5.82
2023-04-01T17:33:43.191Z,5.81
2023-04-01T17:39:07.833Z,5.81
2023-04-01T17:44:26.295Z,5.79
2023-04-01T17:49:35.026Z,5.72
2023-04-01T17:54:59.383Z,5.69
2023-04-01T18:00:17.907Z,5.63
2023-04-01T18:05:31.700Z,5.56
2023-04-01T18:10:52.613Z,5.53
2023-04-01T18:16:28.062Z,5.39
2023-04-01T18:21:51.433Z,5.29
2023-04-01T18:27:10.017Z,5.17
2023-04-01T18:32:25.390Z,5.11
2023-04-01T18:37:42.538Z,5.10
2023-04-01T18:42:56.692Z,5.12
2023-04-01T18:48:32.891Z,5.19
2023-04-01T18:53:35.569Z,5.11
2023-04-01T18:58:59.979Z,4.95
2023-04-01T19:04:39.683Z,4.87
2023-04-01T19:09:48.634Z,4.92
2023-04-01T19:15:00.759Z,4.97
2023-04-01T19:20:03.412Z,4.91
2023-04-01T19:25:34.309Z,4.80
2023-04-01T19:31:00.700Z,4.73
2023-04-01T19:36:10.962Z,4.76
2023-04-01T19:41:36.318Z,4.79
2023-04-01T19:47:10.308Z,4.83
2023-04-01T19:52:20.822Z,4.87
2023-04-01T19:57:33.707Z,4.84
2023-04-01T20:03:01.082Z,4.76
2023-04-01T20:08:19.645Z,4.70
2023-04-01T20:13:38.141Z,4.70
2023-04-01T20:18:46.587Z,4.66
2023-04-01T20:23:59.165Z,4.58
2023-04-01T20:29:28.657Z,4.56
2023-04-01T20:34:31.865Z,4.57
2023-04-01T20:39:46.887Z,4.56
2023-04-01T20:45:08.466Z,4.60
2023-04-01T20:50:27.267Z,4.61
2023-04-01T20:55:52.096Z,4.59
2023-04-01T21:01:03.964Z,4.55
2023-04-01T21:06:33.954Z,4.49
2023-04-01T21:12:09.650Z,4.44
2023-04-01T21:17:46.477Z,4.40
2023-04-01T21:22:56.230Z,4.39
2023-04-01T21:28:14.680Z,4.41
2023-04-01T21:33:36.241Z,4.40
2023-04-01T21:39:01.265Z,4.40
2023-04-01T21:44:36.025Z,4.31
2023-04-01T21:49:48.544Z,4.23
2023-04-01T21:55:23.448Z,4.22
2023-04-01T22:01:02.688Z,4.22
2023-04-01T22:06:46.227Z,4.23
2023-04-01T22:12:15.777Z,4.22
2023-04-01T22:17:55.771Z,4.17
2023-04-01T22:23:18.488Z,4.15
2023-04-01T22:28:52.218Z,4.16
2023-04-01T22:34:26.129Z,4.12
2023-04-01T22:39:49.884Z,4.05
2023-04-01T22:45:09.452Z,3.99
2023-04-01T22:50:28.879Z,3.89
2023-04-01T22:55:39.112Z,3.77
2023-04-01T23:01:01.018Z,3.65
2023-04-01T23:06:05.772Z,3.58
2023-04-01T23:11:16.265Z,3.55
2023-04-01T23:16:24.497Z,3.54
2023-04-01T23:21:30.182Z,3.50
2023-04-01T23:26:48.800Z,3.41
2023-04-01T23:32:02.628Z,3.23
2023-04-01T23:37:12.476Z,3.02
2023-04-01T23:42:32.631Z,2.88
2023-04-01T23:47:39.144Z,2.75
2023-04-01T23:52:47.304Z,2.55
2023-04-01T23:58:05.911Z,2.39
